Time;durP1;ratioP1;P1;durP2;ratioP2;P2;SDS_P1;SDS_P2;PMS_P1;PMS_P2;Temp;Humidity;BMP_temperature;BMP_pressure;BME280_temperature;BME280_humidity;BME280_pressure;Samples;Min_cycle;Max_cycle;Signal;HPM_P1;HPM_P2
2023/10/14 00:02:01;;;;;;;;;;;;;;;18.32;46.81;97253.34;4969330;28;19926;-64
2023/10/14 00:04:29;;;;;;;;;;;;;;;18.30;46.40;97249.41;4969009;28;19926;-63
2023/10/14 00:06:57;;;;;;;;;;;;;;;18.30;46.81;97249.41;4955899;28;20014;-63
2023/10/14 00:09:25;;;;;;;;;;;;;;;18.30;46.31;97252.16;4972578;28;19922;-65
2023/10/14 00:11:56;;;;;;;;;;;;;;;18.33;46.99;97252.19;4975314;28;19923;-65
2023/10/14 00:14:26;;;;;;;;;;;;;;;18.31;46.37;97251.75;4969324;28;19925;-64
2023/10/14 00:16:56;;;;;;;;;;;;;;;18.33;46.77;97246.69;4974684;28;19926;-64
2023/10/14 00:19:24;;;;;;;;;;;;;;;18.35;47.12;97253.75;4973927;28;19926;-64
2023/10/14 00:21:52;;;;;;;;;;;;;;;18.35;47.24;97251.81;4962785;28;19958;-65
2023/10/14 00:24:26;;;;;;;;;;;;;;;18.35;46.82;97251.00;4974296;28;20558;-64
2023/10/14 00:26:57;;;;;;;;;;;;;;;18.36;46.76;97247.88;4970483;28;19922;-64
2023/10/14 00:29:29;;;;;;;;;;;;;;;18.37;46.21;97243.16;4977012;28;19926;-65
2023/10/14 00:31:58;;;;;;;;;;;;;;;18.38;46.85;97256.56;4979530;28;20368;-64
2023/10/14 00:34:26;;;;;;;;;;;;;;;18.40;46.96;97245.16;4971238;28;19984;-66
2023/10/14 00:36:55;;;;;;;;;;;;;;;18.40;46.58;97239.66;4969689;28;19933;-63
2023/10/14 00:39:27;;;;;;;;;;;;;;;18.40;46.80;97232.22;4962545;28;19929;-64
2023/10/14 00:41:58;;;;;;;;;;;;;;;18.36;46.07;97227.84;4971715;28;20368;-64
2023/10/14 00:44:26;;;;;;;;;;;;;;;18.40;46.45;97231.41;4962311;28;19926;-65
2023/10/14 00:46:54;;;;;;;;;;;;;;;18.39;46.69;97221.59;4969345;28;19926;-64
2023/10/14 00:49:23;;;;;;;;;;;;;;;18.39;46.31;97227.88;4952497;28;19928;-64
2023/10/14 00:51:52;;;;;;;;;;;;;;;18.39;47.03;97219.63;4943038;28;19923;-64
2023/10/14 00:54:36;;;;;;;;;;;;;;;18.42;47.59;97220.81;4967660;28;19922;-63
2023/10/14 00:57:10;;;;;;;;;;;;;;;18.42;47.08;97224.34;4970260;28;19930;-64
2023/10/14 00:59:42;;;;;;;;;;;;;;;18.43;47.02;97222.41;4967904;28;20385;-64
2023/10/14 01:02:10;;;;;;;;;;;;;;;18.44;46.94;97218.50;4962797;28;19922;-64
2023/10/14 01:04:40;;;;;;;;;;;;;;;18.43;47.08;97231.47;4967780;28;19922;-66
2023/10/14 01:07:13;;;;;;;;;;;;;;;18.42;46.28;97223.56;4966620;28;19933;-64
2023/10/14 01:09:51;;;;;;;;;;;;;;;18.39;46.98;97218.84;4969122;28;19981;-64
2023/10/14 01:12:27;;;;;;;;;;;;;;;18.36;46.41;97209.38;4951255;28;19922;-64
2023/10/14 01:14:58;;;;;;;;;;;;;;;18.37;46.64;97208.19;4968065;28;19930;-64
2023/10/14 01:17:27;;;;;;;;;;;;;;;18.34;46.42;97203.47;4952639;28;19934;-65
2023/10/14 01:19:59;;;;;;;;;;;;;;;18.36;46.97;97200.34;4970252;28;19933;-65
2023/10/14 01:22:29;;;;;;;;;;;;;;;18.33;46.73;97199.94;4959053;28;19922;-66
2023/10/14 01:24:57;;;;;;;;;;;;;;;18.31;46.66;97196.75;4970485;28;19922;-64
2023/10/14 01:27:25;;;;;;;;;;;;;;;18.30;47.01;97194.41;4969320;28;19922;-64
2023/10/14 01:29:53;;;;;;;;;;;;;;;18.32;47.09;97192.88;4966116;28;19980;-65
2023/10/14 01:32:39;;;;;;;;;;;;;;;18.32;46.67;97190.13;4964675;28;19977;-64
2023/10/14 01:35:24;;;;;;;;;;;;;;;18.33;46.54;97186.19;4970268;28;20010;-65
2023/10/14 01:37:53;;;;;;;;;;;;;;;18.27;45.13;97179.47;4969798;28;19922;-64
2023/10/14 01:40:29;;;;;;;;;;;;;;;18.28;45.55;97172.00;4969364;28;19922;-64
2023/10/14 01:42:57;;;;;;;;;;;;;;;18.23;46.23;97164.09;4960867;28;19929;-66
2023/10/14 01:45:28;;;;;;;;;;;;;;;18.27;46.32;97162.97;4968729;28;20312;-64
2023/10/14 01:48:12;;;;;;;;;;;;;;;18.30;46.78;97173.19;4971695;28;19926;-65
2023/10/14 01:50:44;;;;;;;;;;;;;;;18.33;46.73;97166.94;4970244;28;19922;-64
2023/10/14 01:53:17;;;;;;;;;;;;;;;18.35;46.75;97165.75;4971038;28;19922;-63
2023/10/14 01:55:47;;;;;;;;;;;;;;;18.36;46.43;97173.63;4952977;28;20269;-64
2023/10/14 01:58:22;;;;;;;;;;;;;;;18.35;46.69;97163.00;4956997;28;19922;-64
2023/10/14 02:00:52;;;;;;;;;;;;;;;18.36;46.69;97161.84;4970039;28;19981;-63
2023/10/14 02:03:21;;;;;;;;;;;;;;;18.36;46.06;97153.59;4966858;28;19923;-64
2023/10/14 02:05:51;;;;;;;;;;;;;;;18.36;46.62;97159.88;4970679;28;20284;-64
2023/10/14 02:08:22;;;;;;;;;;;;;;;18.37;46.99;97149.66;4967154;28;19934;-64
2023/10/14 02:10:50;;;;;;;;;;;;;;;18.36;46.92;97153.59;4970646;28;19926;-64
2023/10/14 02:13:19;;;;;;;;;;;;;;;18.35;46.13;97147.31;4953129;28;19980;-64
2023/10/14 02:15:47;;;;;;;;;;;;;;;18.31;45.56;97151.97;4968581;28;19927;-64
2023/10/14 02:18:16;;;;;;;;;;;;;;;18.32;46.54;97143.38;4953257;28;20435;-65
2023/10/14 02:20:57;;;;;;;;;;;;;;;18.31;46.48;97150.03;4964424;28;19976;-64
2023/10/14 02:23:27;;;;;;;;;;;;;;;18.28;46.41;97142.53;4967931;28;20664;-64
2023/10/14 02:25:58;;;;;;;;;;;;;;;18.28;46.93;97142.53;4974110;28;19926;-64
2023/10/14 02:28:28;;;;;;;;;;;;;;;18.28;46.08;97141.75;4973176;28;20481;-64
2023/10/14 02:31:00;;;;;;;;;;;;;;;18.23;46.09;97140.16;4972666;28;19922;-64
2023/10/14 02:33:28;;;;;;;;;;;;;;;18.24;46.11;97138.97;4970228;28;19923;-64
2023/10/14 02:35:59;;;;;;;;;;;;;;;18.27;46.30;97140.97;4972534;28;19926;-64
2023/10/14 02:38:30;;;;;;;;;;;;;;;18.28;46.59;97130.75;4971326;28;19926;-65
2023/10/14 02:41:03;;;;;;;;;;;;;;;18.27;46.53;97135.47;4971149;28;20423;-63
2023/10/14 02:43:31;;;;;;;;;;;;;;;18.30;46.81;97139.41;4965690;28;19968;-64
2023/10/14 02:46:02;;;;;;;;;;;;;;;18.30;46.38;97128.41;4973500;28;19952;-64
2023/10/14 02:48:52;;;;;;;;;;;;;;;18.48;48.13;97134.03;4973369;28;19977;-64
2023/10/14 02:51:29;;;;;;;;;;;;;;;18.46;47.07;97136.38;4966522;28;19926;-64
2023/10/14 02:54:04;;;;;;;;;;;;;;;18.39;46.37;97136.34;4959666;28;19922;-64
2023/10/14 02:56:45;;;;;;;;;;;;;;;18.37;46.70;97131.19;4961464;28;19945;-64
2023/10/14 02:59:17;;;;;;;;;;;;;;;18.36;46.33;97132.38;4954490;28;19934;-64
2023/10/14 03:01:51;;;;;;;;;;;;;;;18.37;47.00;97130.41;4969054;28;19934;-64
2023/10/14 03:04:22;;;;;;;;;;;;;;;18.36;46.62;97137.09;4953734;28;19988;-65
2023/10/14 03:06:53;;;;;;;;;;;;;;;18.38;49.48;97134.78;4972875;28;19922;-64
2023/10/14 03:09:32;;;;;;;;;;;;;;;18.39;47.99;97136.34;4951828;28;19923;-64
2023/10/14 03:12:00;;;;;;;;;;;;;;;18.39;47.95;97141.84;4969874;28;19941;-64
2023/10/14 03:14:31;;;;;;;;;;;;;;;18.40;48.03;97130.44;4970865;28;19933;-64
2023/10/14 03:16:59;;;;;;;;;;;;;;;18.44;51.24;97144.25;4965636;28;19922;-65
2023/10/14 03:19:26;;;;;;;;;;;;;;;18.45;48.86;97126.56;4969902;28;19929;-65
2023/10/14 03:21:59;;;;;;;;;;;;;;;18.44;49.39;97122.25;4962051;28;20002;-64
2023/10/14 03:24:30;;;;;;;;;;;;;;;18.47;49.93;97130.50;4971754;28;20454;-64
2023/10/14 03:27:04;;;;;;;;;;;;;;;18.46;49.02;97133.63;4948908;28;19934;-64
2023/10/14 03:29:32;;;;;;;;;;;;;;;18.46;48.33;97119.88;4970775;28;19974;-63
2023/10/14 03:31:59;;;;;;;;;;;;;;;18.47;49.15;97125.00;4967643;28;20303;-64
2023/10/14 03:34:30;;;;;;;;;;;;;;;18.50;50.11;97129.75;4970226;28;19922;-64
2023/10/14 03:37:03;;;;;;;;;;;;;;;18.50;49.49;97121.50;4968011;28;20284;-64
2023/10/14 03:39:45;;;;;;;;;;;;;;;18.52;50.77;97105.38;4971501;28;19941;-64
2023/10/14 03:42:14;;;;;;;;;;;;;;;18.56;50.81;97119.16;4966355;28;19923;-64
2023/10/14 03:44:43;;;;;;;;;;;;;;;18.58;50.66;97111.31;4964972;28;20398;-65
2023/10/14 03:47:15;;;;;;;;;;;;;;;18.59;50.98;97099.16;4965077;28;20442;-63
2023/10/14 03:49:44;;;;;;;;;;;;;;;18.59;51.13;97096.41;4971613;28;19929;-64
2023/10/14 03:52:12;;;;;;;;;;;;;;;18.59;51.33;97096.41;4972196;28;19985;-65
2023/10/14 03:54:45;;;;;;;;;;;;;;;18.61;51.90;97099.56;4969281;28;19949;-65
2023/10/14 03:57:17;;;;;;;;;;;;;;;18.67;52.48;97100.78;4970283;28;20360;-65
2023/10/14 03:59:46;;;;;;;;;;;;;;;18.71;52.06;97098.06;4968301;28;20376;-64
2023/10/14 04:02:19;;;;;;;;;;;;;;;18.74;52.66;97098.06;4972172;28;20423;-64
2023/10/14 04:04:47;;;;;;;;;;;;;;;18.79;53.08;97094.97;4967524;28;19922;-64
2023/10/14 04:07:16;;;;;;;;;;;;;;;18.86;53.02;97098.94;4969940;28;19929;-64
2023/10/14 04:09:50;;;;;;;;;;;;;;;18.92;53.12;97081.69;4970218;28;19929;-64
2023/10/14 04:15:15;;;;;;;;;;;;;;;18.96;53.49;97079.75;4960737;28;19934;-64
2023/10/14 04:17:46;;;;;;;;;;;;;;;18.97;53.50;97078.56;4969772;28;19922;-63
2023/10/14 04:20:29;;;;;;;;;;;;;;;18.97;53.66;97078.56;4970656;28;19957;-64
2023/10/14 04:22:58;;;;;;;;;;;;;;;19.01;53.78;97084.06;4965143;28;20418;-64
2023/10/14 04:25:41;;;;;;;;;;;;;;;18.98;54.26;97073.84;4968393;28;20442;-64
2023/10/14 04:28:25;;;;;;;;;;;;;;;18.96;54.32;97065.97;4971959;28;19977;-64
2023/10/14 04:30:53;;;;;;;;;;;;;;;18.95;54.55;97063.59;4970309;28;20379;-64
2023/10/14 04:33:25;;;;;;;;;;;;;;;18.97;54.60;97062.03;4968002;28;19926;-64
2023/10/14 04:36:09;;;;;;;;;;;;;;;18.98;55.24;97060.88;4967868;28;19922;-64
2023/10/14 04:38:42;;;;;;;;;;;;;;;18.99;54.91;97059.69;4972139;28;19970;-64
2023/10/14 04:41:14;;;;;;;;;;;;;;;19.02;55.07;97063.63;4971698;28;20271;-65
2023/10/14 04:44:00;;;;;;;;;;;;;;;19.02;55.38;97058.13;4968692;28;19933;-64
2023/10/14 04:46:45;;;;;;;;;;;;;;;19.01;56.00;97062.03;4971494;28;19933;-63
2023/10/14 04:49:16;;;;;;;;;;;;;;;18.98;55.91;97060.88;4972494;28;19968;-64
2023/10/14 04:51:46;;;;;;;;;;;;;;;18.98;56.02;97054.56;4951646;28;19922;-64
2023/10/14 04:54:19;;;;;;;;;;;;;;;18.94;56.30;97057.28;4963742;28;19969;-64
2023/10/14 04:56:48;;;;;;;;;;;;;;;18.93;56.58;97057.69;4969958;28;19926;-63
2023/10/14 04:59:19;;;;;;;;;;;;;;;18.93;56.68;97061.22;4972486;28;19944;-64
2023/10/14 05:01:48;;;;;;;;;;;;;;;18.93;56.84;97071.47;4960672;28;19929;-65
2023/10/14 05:04:20;;;;;;;;;;;;;;;18.93;57.00;97069.50;4968505;28;20028;-64
2023/10/14 05:06:48;;;;;;;;;;;;;;;18.95;57.23;97069.88;4971769;28;19922;-65
2023/10/14 05:09:29;;;;;;;;;;;;;;;18.96;57.45;97078.94;4971471;28;19925;-65
2023/10/14 05:12:00;;;;;;;;;;;;;;;18.97;57.44;97072.28;4969340;28;19926;-64
2023/10/14 05:14:36;;;;;;;;;;;;;;;18.99;57.43;97084.47;4971537;28;19922;-64
2023/10/14 05:17:14;;;;;;;;;;;;;;;19.04;57.57;97078.56;4971654;28;19977;-63
2023/10/14 05:19:47;;;;;;;;;;;;;;;19.09;57.37;97085.69;4971460;28;19926;-63
2023/10/14 05:22:23;;;;;;;;;;;;;;;19.10;57.53;97073.47;4962620;28;20407;-64
2023/10/14 05:24:54;;;;;;;;;;;;;;;19.10;57.58;97079.78;4973011;28;19948;-64
2023/10/14 05:27:35;;;;;;;;;;;;;;;19.11;57.51;97083.31;4963111;28;19928;-63
2023/10/14 05:30:07;;;;;;;;;;;;;;;19.13;57.63;97086.50;4982741;28;19968;-64
2023/10/14 05:32:36;;;;;;;;;;;;;;;19.14;57.62;97090.81;4966869;28;19922;-64
2023/10/14 05:35:09;;;;;;;;;;;;;;;19.16;57.43;97096.72;4973787;28;19934;-63
2023/10/14 05:37:41;;;;;;;;;;;;;;;19.17;57.31;97101.03;4966727;28;19929;-65
2023/10/14 05:40:13;;;;;;;;;;;;;;;19.20;57.58;97124.28;4971931;28;19933;-64
2023/10/14 05:42:46;;;;;;;;;;;;;;;19.20;58.53;97143.53;4980408;28;19933;-63
2023/10/14 05:45:17;;;;;;;;;;;;;;;19.11;60.28;97154.91;4972905;28;19945;-63
2023/10/14 05:47:46;;;;;;;;;;;;;;;18.96;62.69;97206.34;4971446;28;20357;-64
2023/10/14 05:50:17;;;;;;;;;;;;;;;18.72;65.65;97199.50;4974726;28;19922;-64
2023/10/14 05:52:46;;;;;;;;;;;;;;;18.54;66.82;97184.78;4973899;28;20633;-64
2023/10/14 05:55:19;;;;;;;;;;;;;;;18.44;66.62;97185.50;4974880;28;19980;-64
2023/10/14 05:57:49;;;;;;;;;;;;;;;18.39;65.94;97196.84;4972307;28;20380;-65
2023/10/14 06:00:25;;;;;;;;;;;;;;;18.24;65.88;97193.97;4974968;28;19969;-64
2023/10/14 06:02:53;;;;;;;;;;;;;;;18.20;65.86;97200.59;4973286;28;19930;-63
2023/10/14 06:05:21;;;;;;;;;;;;;;;18.15;66.40;97209.19;4969273;28;19937;-63
2023/10/14 06:07:49;;;;;;;;;;;;;;;18.03;66.28;97224.78;4976588;28;19922;-63
2023/10/14 06:10:22;;;;;;;;;;;;;;;18.02;66.10;97223.19;4974874;28;20344;-63
2023/10/14 06:12:51;;;;;;;;;;;;;;;17.91;65.96;97216.00;4977335;28;19922;-63
2023/10/14 06:15:20;;;;;;;;;;;;;;;17.87;66.48;97215.19;4975966;28;19969;-64
2023/10/14 06:17:48;;;;;;;;;;;;;;;17.91;66.24;97227.00;4972498;28;20311;-65
2023/10/14 06:20:20;;;;;;;;;;;;;;;17.86;66.59;97230.88;4972171;28;19922;-65
2023/10/14 06:22:47;;;;;;;;;;;;;;;17.84;66.32;97238.69;4972011;28;19984;-63
2023/10/14 06:25:16;;;;;;;;;;;;;;;17.82;65.58;97241.03;4969369;28;20108;-65
2023/10/14 06:27:46;;;;;;;;;;;;;;;17.79;66.06;97230.81;4967784;28;19922;-63
2023/10/14 06:30:21;;;;;;;;;;;;;;;17.86;65.82;97225.38;4970090;28;19922;-65
2023/10/14 06:32:52;;;;;;;;;;;;;;;17.90;65.59;97222.69;4972683;28;19922;-63
2023/10/14 06:35:20;;;;;;;;;;;;;;;17.88;65.26;97233.25;4971323;28;19988;-64
2023/10/14 06:37:48;;;;;;;;;;;;;;;17.91;64.52;97232.50;4971344;28;19957;-65
2023/10/14 06:40:19;;;;;;;;;;;;;;;17.95;64.52;97244.31;4973191;28;19922;-64
2023/10/14 06:42:49;;;;;;;;;;;;;;;17.94;64.34;97245.47;4974034;28;19929;-64
2023/10/14 06:45:20;;;;;;;;;;;;;;;17.92;63.86;97242.31;4973426;28;19922;-63
2023/10/14 06:47:56;;;;;;;;;;;;;;;17.93;64.58;97252.94;4969233;28;19930;-63
2023/10/14 06:50:25;;;;;;;;;;;;;;;17.94;64.07;97245.47;4972166;28;19926;-63
2023/10/14 06:52:58;;;;;;;;;;;;;;;17.94;63.91;97254.50;4968857;28;20361;-64
2023/10/14 06:55:26;;;;;;;;;;;;;;;17.94;64.10;97265.50;4966265;28;19929;-65
2023/10/14 06:57:55;;;;;;;;;;;;;;;17.93;64.44;97268.63;4968332;28;19929;-64
2023/10/14 07:00:29;;;;;;;;;;;;;;;17.95;63.99;97271.78;4963968;28;20325;-64
2023/10/14 07:02:59;;;;;;;;;;;;;;;17.96;64.18;97279.69;4967862;28;19922;-64
2023/10/14 07:05:28;;;;;;;;;;;;;;;17.97;64.00;97281.25;4971126;28;19930;-64
2023/10/14 07:07:57;;;;;;;;;;;;;;;17.95;64.34;97280.03;4970413;28;19922;-64
2023/10/14 07:10:32;;;;;;;;;;;;;;;17.95;64.21;97278.09;4963297;28;19926;-64
2023/10/14 07:13:00;;;;;;;;;;;;;;;18.00;64.87;97285.19;4964304;28;20494;-65
2023/10/14 07:15:31;;;;;;;;;;;;;;;17.97;64.21;97291.47;4971125;28;19923;-64
2023/10/14 07:18:01;;;;;;;;;;;;;;;17.96;64.20;97301.66;4965411;28;19941;-64
2023/10/14 07:20:30;;;;;;;;;;;;;;;17.95;64.37;97304.75;4968811;28;19941;-65
2023/10/14 07:22:58;;;;;;;;;;;;;;;17.92;64.32;97295.31;4970577;28;20497;-64
2023/10/14 07:25:26;;;;;;;;;;;;;;;17.97;64.65;97308.72;4967616;28;19922;-65
2023/10/14 07:27:59;;;;;;;;;;;;;;;17.99;64.23;97314.63;4967528;28;19960;-64
2023/10/14 07:30:27;;;;;;;;;;;;;;;18.07;64.61;97315.53;4970673;28;19922;-64
2023/10/14 07:33:00;;;;;;;;;;;;;;;18.06;64.15;97319.44;4969585;28;19934;-63
2023/10/14 07:35:28;;;;;;;;;;;;;;;18.03;64.11;97315.47;4965417;28;20288;-63
2023/10/14 07:37:59;;;;;;;;;;;;;;;18.03;64.02;97328.44;4980006;28;19922;-64
2023/10/14 07:40:30;;;;;;;;;;;;;;;18.03;64.07;97318.22;4961732;28;19929;-64
2023/10/14 07:43:04;;;;;;;;;;;;;;;18.02;64.19;97322.16;4968623;28;19928;-64
2023/10/14 07:45:34;;;;;;;;;;;;;;;18.02;63.93;97340.59;4967844;28;20364;-64
2023/10/14 07:48:08;;;;;;;;;;;;;;;18.02;63.89;97332.34;4970383;28;19922;-63
2023/10/14 07:50:37;;;;;;;;;;;;;;;18.06;64.15;97335.94;4965039;28;19926;-64
2023/10/14 07:53:08;;;;;;;;;;;;;;;18.08;63.88;97341.84;4969136;28;19934;-64
2023/10/14 07:55:38;;;;;;;;;;;;;;;18.10;63.82;97336.75;4948035;28;20381;-64
2023/10/14 07:58:10;;;;;;;;;;;;;;;18.12;63.81;97342.69;4967458;28;19930;-63
2023/10/14 08:00:39;;;;;;;;;;;;;;;18.17;63.79;97345.09;4964534;28;19930;-63
2023/10/14 08:03:14;;;;;;;;;;;;;;;18.24;63.76;97341.63;4968080;28;20387;-63
2023/10/14 08:05:44;;;;;;;;;;;;;;;18.28;63.55;97339.72;4950571;28;19953;-63
2023/10/14 08:08:14;;;;;;;;;;;;;;;18.30;63.14;97343.69;4966318;28;19926;-64
2023/10/14 08:10:42;;;;;;;;;;;;;;;18.31;63.10;97338.97;4974201;28;19926;-63
2023/10/14 08:13:10;;;;;;;;;;;;;;;18.30;63.35;97351.91;4972010;28;19926;-67
2023/10/14 08:15:38;;;;;;;;;;;;;;;18.30;63.26;97359.38;4968885;28;19922;-63
2023/10/14 08:18:13;;;;;;;;;;;;;;;18.33;63.23;97353.94;4972324;28;19922;-63
2023/10/14 08:20:43;;;;;;;;;;;;;;;18.37;63.17;97362.19;4969328;28;19985;-64
2023/10/14 08:23:11;;;;;;;;;;;;;;;18.35;63.30;97366.50;4965715;28;19923;-63
2023/10/14 08:25:39;;;;;;;;;;;;;;;18.35;63.22;97366.50;4966833;28;19922;-64
2023/10/14 08:28:07;;;;;;;;;;;;;;;18.33;63.07;97362.19;4967381;28;19922;-62
2023/10/14 08:30:45;;;;;;;;;;;;;;;18.27;63.37;97360.94;4945636;28;19976;-63
2023/10/14 08:33:14;;;;;;;;;;;;;;;18.27;63.46;97371.16;4969018;28;19934;-65
2023/10/14 08:35:42;;;;;;;;;;;;;;;18.26;63.69;97359.34;4967880;28;20048;-63
2023/10/14 08:38:12;;;;;;;;;;;;;;;18.36;63.38;97370.84;4972572;28;19975;-62
2023/10/14 08:40:40;;;;;;;;;;;;;;;18.37;63.30;97358.66;4966735;28;19922;-63
2023/10/14 08:43:10;;;;;;;;;;;;;;;18.37;63.23;97364.94;4968411;28;20012;-63
2023/10/14 08:45:38;;;;;;;;;;;;;;;18.32;63.48;97357.03;4971187;28;19957;-63
2023/10/14 08:48:08;;;;;;;;;;;;;;;18.31;63.42;97356.25;4969845;28;19925;-63
2023/10/14 08:50:39;;;;;;;;;;;;;;;18.26;63.11;97353.84;4972046;28;19922;-63
2023/10/14 08:53:07;;;;;;;;;;;;;;;18.25;63.55;97363.25;4970971;28;20604;-63
2023/10/14 08:55:35;;;;;;;;;;;;;;;18.24;63.11;97361.69;4972013;28;20280;-63
2023/10/14 08:58:05;;;;;;;;;;;;;;;18.26;63.69;97356.59;4959244;28;19930;-63
2023/10/14 09:00:36;;;;;;;;;;;;;;;18.25;63.25;97363.25;4972037;28;19926;-63
2023/10/14 09:03:05;;;;;;;;;;;;;;;18.30;63.37;97360.16;4970146;28;20335;-64
2023/10/14 09:05:33;;;;;;;;;;;;;;;18.30;63.15;97360.16;4968708;28;19929;-63
2023/10/14 09:08:02;;;;;;;;;;;;;;;18.33;63.25;97364.94;4969469;28;20468;-63
2023/10/14 09:10:29;;;;;;;;;;;;;;;18.42;63.12;97366.59;4971320;28;19965;-63
2023/10/14 09:12:57;;;;;;;;;;;;;;;18.42;62.78;97396.84;4969455;28;19953;-65
2023/10/14 09:15:26;;;;;;;;;;;;;;;18.18;60.93;97409.13;4970851;28;19926;-63
2023/10/14 09:17:56;;;;;;;;;;;;;;;18.00;60.99;97417.13;4954216;28;19944;-63
2023/10/14 09:20:30;;;;;;;;;;;;;;;17.87;60.18;97410.28;4966500;28;19923;-63
2023/10/14 09:23:27;;;;;;;;;;;;;;;17.67;62.04;97432.31;4966328;28;19938;-63
2023/10/14 09:25:56;;;;;;;;;;;;;;;17.60;64.15;97439.69;4934185;28;20489;-63
2023/10/14 09:28:26;;;;;;;;;;;;;;;17.31;65.40;97447.47;4967617;28;20368;-63
2023/10/14 09:30:54;;;;;;;;;;;;;;;17.20;66.25;97441.75;4967325;28;19953;-64
2023/10/14 09:33:27;;;;;;;;;;;;;;;17.04;66.53;97446.56;4971150;28;19922;-64
2023/10/14 09:35:58;;;;;;;;;;;;;;;16.86;67.90;97449.00;4968453;28;19922;-62
2023/10/14 09:38:27;;;;;;;;;;;;;;;16.56;69.00;97467.97;4971550;28;19937;-64
2023/10/14 09:40:57;;;;;;;;;;;;;;;16.43;69.80;97463.81;4968158;28;19926;-63
2023/10/14 09:43:24;;;;;;;;;;;;;;;16.42;70.13;97468.50;4971800;28;20379;-63
2023/10/14 09:45:55;;;;;;;;;;;;;;;16.40;70.94;97475.47;4970525;28;19923;-62
2023/10/14 09:48:26;;;;;;;;;;;;;;;16.38;71.50;97480.53;4965838;28;20046;-62
2023/10/14 09:50:55;;;;;;;;;;;;;;;16.34;71.47;97490.63;4968978;28;19922;-62
2023/10/14 09:53:26;;;;;;;;;;;;;;;16.30;71.73;97490.56;4968704;28;19922;-64
2023/10/14 09:55:56;;;;;;;;;;;;;;;16.29;72.02;97499.91;4967134;28;19934;-62
2023/10/14 09:58:24;;;;;;;;;;;;;;;16.35;72.08;97497.69;4967792;28;19922;-61
2023/10/14 10:00:52;;;;;;;;;;;;;;;16.31;71.38;97494.09;4947595;28;19929;-62
2023/10/14 10:03:21;;;;;;;;;;;;;;;16.30;71.54;97511.69;4969285;28;19922;-62
2023/10/14 10:05:58;;;;;;;;;;;;;;;16.33;71.98;97502.75;4968567;28;19928;-63
2023/10/14 10:08:32;;;;;;;;;;;;;;;16.33;72.42;97497.25;4968795;28;19922;-62
2023/10/14 10:11:01;;;;;;;;;;;;;;;16.33;72.57;97500.00;4973485;28;19926;-62
2023/10/14 10:13:29;;;;;;;;;;;;;;;16.34;72.60;97512.56;4971647;28;19929;-61
2023/10/14 10:16:02;;;;;;;;;;;;;;;16.26;72.36;97511.63;4971466;28;19929;-61
2023/10/14 10:18:45;;;;;;;;;;;;;;;16.24;72.20;97509.25;4966419;28;19922;-62
2023/10/14 10:21:13;;;;;;;;;;;;;;;16.28;72.48;97514.00;4967511;28;19926;-62
2023/10/14 10:23:41;;;;;;;;;;;;;;;16.25;72.47;97518.25;4972512;28;19929;-62
2023/10/14 10:26:12;;;;;;;;;;;;;;;16.24;72.67;97506.50;4964040;28;20430;-65
2023/10/14 10:28:43;;;;;;;;;;;;;;;16.24;73.26;97503.75;4968007;28;19933;-61
2023/10/14 10:31:14;;;;;;;;;;;;;;;16.20;73.88;97493.88;4968313;28;19933;-61
2023/10/14 10:33:47;;;;;;;;;;;;;;;16.15;74.13;97496.88;4971934;28;19926;-62
2023/10/14 10:36:14;;;;;;;;;;;;;;;16.23;74.57;97501.34;4969930;28;19928;-62
2023/10/14 10:38:42;;;;;;;;;;;;;;;16.11;73.71;97485.84;4970922;28;19962;-62
2023/10/14 10:41:24;;;;;;;;;;;;;;;16.03;73.54;97484.06;4973343;28;20279;-62
2023/10/14 10:43:51;;;;;;;;;;;;;;;15.99;74.11;97510.63;4973325;28;19934;-61
2023/10/14 10:46:29;;;;;;;;;;;;;;;15.91;73.41;97506.91;4973900;28;19928;-62
2023/10/14 10:48:57;;;;;;;;;;;;;;;15.82;75.42;97503.59;4967588;28;19945;-62
2023/10/14 10:51:29;;;;;;;;;;;;;;;15.80;75.60;97508.59;4968868;28;19930;-62
2023/10/14 10:53:59;;;;;;;;;;;;;;;15.84;76.20;97505.97;4974066;28;19938;-61
2023/10/14 10:56:30;;;;;;;;;;;;;;;15.83;75.17;97512.59;4969644;28;19934;-62
2023/10/14 10:58:58;;;;;;;;;;;;;;;15.93;75.12;97509.31;4974092;28;19930;-62
2023/10/14 11:01:26;;;;;;;;;;;;;;;15.95;74.25;97501.50;4974083;28;19922;-62
2023/10/14 11:03:54;;;;;;;;;;;;;;;16.01;74.02;97504.78;4972706;28;20283;-62
2023/10/14 11:06:24;;;;;;;;;;;;;;;16.10;73.92;97506.16;4969581;28;21208;-62
2023/10/14 11:08:52;;;;;;;;;;;;;;;16.16;74.67;97510.22;4970609;28;20303;-62
2023/10/14 11:11:21;;;;;;;;;;;;;;;16.16;74.56;97518.44;4975575;28;19922;-62
2023/10/14 11:13:50;;;;;;;;;;;;;;;16.15;74.07;97511.38;4973958;28;19923;-62
2023/10/14 11:16:18;;;;;;;;;;;;;;;16.19;74.24;97512.25;4971550;28;20328;-62
2023/10/14 11:18:47;;;;;;;;;;;;;;;16.18;74.57;97518.88;4971210;28;19932;-61
2023/10/14 11:21:16;;;;;;;;;;;;;;;16.12;75.14;97514.03;4968671;28;19922;-61
2023/10/14 11:23:44;;;;;;;;;;;;;;;16.07;75.73;97512.34;4972884;28;19926;-62
2023/10/14 11:26:12;;;;;;;;;;;;;;;15.93;76.36;97520.28;4970537;28;20368;-61
2023/10/14 11:28:44;;;;;;;;;;;;;;;15.86;76.93;97515.41;4969199;28;19933;-62
2023/10/14 11:31:14;;;;;;;;;;;;;;;15.76;77.54;97517.88;4969718;28;19922;-62
2023/10/14 11:33:45;;;;;;;;;;;;;;;15.72;77.99;97517.81;4972098;28;19949;-63
2023/10/14 11:36:17;;;;;;;;;;;;;;;15.68;77.76;97506.75;4969499;28;19923;-61
2023/10/14 11:38:46;;;;;;;;;;;;;;;15.67;79.02;97496.97;4970174;28;19929;-61
2023/10/14 11:41:15;;;;;;;;;;;;;;;15.65;78.51;97499.25;4970623;28;19922;-62
2023/10/14 11:43:44;;;;;;;;;;;;;;;15.60;78.08;97494.00;4972166;28;19992;-61
2023/10/14 11:46:11;;;;;;;;;;;;;;;15.63;78.47;97484.31;4970434;28;20271;-61
2023/10/14 11:48:44;;;;;;;;;;;;;;;15.63;78.73;97493.34;4966975;28;19922;-61
2023/10/14 11:51:12;;;;;;;;;;;;;;;15.63;78.57;97490.59;4972760;28;19930;-61
2023/10/14 11:53:43;;;;;;;;;;;;;;;15.67;78.70;97483.28;4972160;28;20420;-61
2023/10/14 11:56:13;;;;;;;;;;;;;;;15.74;78.34;97485.38;4968525;28;19976;-64
2023/10/14 11:58:41;;;;;;;;;;;;;;;15.78;78.82;97489.00;4970162;28;20006;-62
2023/10/14 12:01:10;;;;;;;;;;;;;;;15.83;78.94;97488.72;4972137;28;20369;-61
2023/10/14 12:03:38;;;;;;;;;;;;;;;15.87;78.75;97494.28;4965706;28;19928;-61
2023/10/14 12:06:11;;;;;;;;;;;;;;;15.92;78.90;97492.06;4971848;28;19926;-61
2023/10/14 12:08:39;;;;;;;;;;;;;;;15.98;78.74;97492.59;4971246;28;20311;-61
2023/10/14 12:11:08;;;;;;;;;;;;;;;16.03;78.82;97500.50;4970538;28;19927;-66
2023/10/14 12:13:37;;;;;;;;;;;;;;;16.07;78.31;97504.13;4971595;28;19934;-61
2023/10/14 12:16:17;;;;;;;;;;;;;;;16.03;78.21;97502.47;4971871;28;19977;-61
2023/10/14 12:18:45;;;;;;;;;;;;;;;16.03;77.99;97506.00;4972484;28;19957;-62
2023/10/14 12:21:15;;;;;;;;;;;;;;;16.03;77.77;97494.25;4964381;28;20272;-61
2023/10/14 12:23:46;;;;;;;;;;;;;;;16.03;78.61;97503.25;4967547;28;20594;-61
2023/10/14 12:26:14;;;;;;;;;;;;;;;16.03;78.51;97492.28;4970772;28;19933;-61
2023/10/14 12:28:58;;;;;;;;;;;;;;;16.02;77.92;97493.44;4965565;28;19922;-64
2023/10/14 12:31:27;;;;;;;;;;;;;;;16.03;77.70;97494.25;4966063;28;19922;-64
2023/10/14 12:34:01;;;;;;;;;;;;;;;16.01;77.98;97480.91;4967997;28;20032;-62
2023/10/14 12:36:30;;;;;;;;;;;;;;;16.04;77.51;97484.91;4968823;28;19968;-62
2023/10/14 12:39:00;;;;;;;;;;;;;;;16.07;77.84;97479.47;4966308;28;19929;-61
2023/10/14 12:41:28;;;;;;;;;;;;;;;16.08;77.51;97486.53;4970151;28;19977;-62
2023/10/14 12:44:00;;;;;;;;;;;;;;;16.12;77.33;97492.09;4969205;28;19988;-62
2023/10/14 12:46:33;;;;;;;;;;;;;;;16.03;77.90;97484.06;4971143;28;19922;-61
2023/10/14 12:49:03;;;;;;;;;;;;;;;16.06;77.85;97488.84;4972040;28;19922;-62
2023/10/14 12:51:33;;;;;;;;;;;;;;;16.01;78.04;97489.13;4969768;28;19933;-61
2023/10/14 12:54:03;;;;;;;;;;;;;;;15.96;78.05;97497.63;4969998;28;20008;-62
2023/10/14 12:56:31;;;;;;;;;;;;;;;15.87;78.23;97503.31;4960469;28;19922;-61
2023/10/14 12:58:59;;;;;;;;;;;;;;;15.84;78.61;97503.22;4971190;28;19922;-61
2023/10/14 13:01:27;;;;;;;;;;;;;;;15.80;78.32;97505.06;4969721;28;20551;-62
2023/10/14 13:03:56;;;;;;;;;;;;;;;15.74;78.48;97509.22;4965235;28;19970;-61
2023/10/14 13:06:26;;;;;;;;;;;;;;;15.71;79.23;97511.53;4970361;28;19922;-62
2023/10/14 13:08:58;;;;;;;;;;;;;;;15.65;79.83;97528.56;4963093;28;20004;-62
2023/10/14 13:11:26;;;;;;;;;;;;;;;15.53;78.81;97529.44;4961725;28;19922;-64